Time;durP1;ratioP1;P1;durP2;ratioP2;P2;SDS_P1;SDS_P2;PMS_P1;PMS_P2;Temp;Humidity;BMP_temperature;BMP_pressure;BME280_temperature;BME280_humidity;BME280_pressure;Samples;Min_cycle;Max_cycle;Signal;HPM_P1;HPM_P2
2021/12/10 00:01:19;;;;;;;;;;;10.90;52.40;;;;;;6188919;23;19912;-86
2021/12/10 00:03:48;;;;;;;;;;;10.90;52.40;;;;;;6188827;23;19911;-86
2021/12/10 00:06:13;;;;;;;;;;;11.00;52.50;;;;;;6215561;23;19912;-86
2021/12/10 00:08:42;;;;;;;;;;;10.90;52.40;;;;;;6215475;23;19994;-86
2021/12/10 00:11:10;;;;;;;;;;;10.90;52.20;;;;;;6188747;23;20251;-86
2021/12/10 00:13:36;;;;;;;;;;;10.90;52.20;;;;;;6215078;23;19953;-86
2021/12/10 00:16:02;;;;;;;;;;;11.00;52.30;;;;;;6189100;23;20292;-86
2021/12/10 00:18:33;;;;;;;;;;;11.00;52.20;;;;;;6189157;23;19910;-87
2021/12/10 00:20:59;;;;;;;;;;;10.90;52.40;;;;;;6188650;23;19918;-86
2021/12/10 00:23:28;;;;;;;;;;;10.90;52.50;;;;;;6215420;23;19982;-86
2021/12/10 00:25:54;;;;;;;;;;;11.00;52.40;;;;;;6215230;23;19916;-86
2021/12/10 00:28:23;;;;;;;;;;;11.00;52.50;;;;;;6214877;23;19962;-86
2021/12/10 00:30:59;;;;;;;;;;;11.00;52.90;;;;;;6188450;23;19912;-86
2021/12/10 00:33:26;;;;;;;;;;;11.00;52.80;;;;;;6215059;23;19904;-86
2021/12/10 00:35:53;;;;;;;;;;;11.00;52.80;;;;;;6188299;23;19938;-86
2021/12/10 00:38:19;;;;;;;;;;;11.00;52.60;;;;;;6188997;23;20012;-86
2021/12/10 00:40:45;;;;;;;;;;;11.00;52.60;;;;;;6188183;23;19923;-87
2021/12/10 00:43:10;;;;;;;;;;;11.00;52.50;;;;;;6188348;23;20241;-86
2021/12/10 00:45:36;;;;;;;;;;;11.00;52.80;;;;;;6187970;23;20225;-87
2021/12/10 00:48:02;;;;;;;;;;;11.00;52.70;;;;;;6215036;23;19911;-86
2021/12/10 00:50:30;;;;;;;;;;;11.00;53.00;;;;;;6187891;23;19916;-87
2021/12/10 00:52:55;;;;;;;;;;;11.00;52.80;;;;;;6188289;23;20662;-86
2021/12/10 00:55:22;;;;;;;;;;;11.00;52.80;;;;;;6214564;23;20007;-86
2021/12/10 00:57:48;;;;;;;;;;;11.00;52.90;;;;;;6188034;23;19910;-86
2021/12/10 01:00:17;;;;;;;;;;;11.00;52.70;;;;;;6187790;23;19958;-86
2021/12/10 01:02:42;;;;;;;;;;;11.00;52.70;;;;;;6214692;23;19904;-86
2021/12/10 01:05:09;;;;;;;;;;;11.00;52.90;;;;;;6187397;23;19915;-86
2021/12/10 01:07:35;;;;;;;;;;;11.00;52.80;;;;;;6188487;23;19926;-86
2021/12/10 01:10:09;;;;;;;;;;;11.00;52.70;;;;;;6214227;23;19911;-87
2021/12/10 01:12:38;;;;;;;;;;;11.00;52.50;;;;;;6188172;23;20298;-86
2021/12/10 01:15:31;;;;;;;;;;;11.00;52.50;;;;;;6214034;23;19920;-86
2021/12/10 01:28:46;;;;;;;;;;;10.70;52.70;;;;;;6214394;23;19916;-87
2021/12/10 01:31:12;;;;;;;;;;;10.70;52.90;;;;;;6215493;23;19912;-86
2021/12/10 01:33:37;;;;;;;;;;;10.70;52.90;;;;;;6214809;23;19911;-87
2021/12/10 01:36:07;;;;;;;;;;;10.80;52.70;;;;;;6187713;23;20332;-86
2021/12/10 01:38:33;;;;;;;;;;;10.80;52.70;;;;;;6187983;23;19918;-87
2021/12/10 01:41:00;;;;;;;;;;;10.80;53.10;;;;;;6214975;23;20240;-86
2021/12/10 01:43:26;;;;;;;;;;;10.80;53.10;;;;;;6187365;23;19904;-86
2021/12/10 01:45:56;;;;;;;;;;;10.90;53.30;;;;;;6188318;23;19916;-86
2021/12/10 01:48:24;;;;;;;;;;;10.90;53.20;;;;;;6187520;23;19931;-87
2021/12/10 01:50:50;;;;;;;;;;;10.90;53.30;;;;;;6214838;23;19923;-86
2021/12/10 01:53:17;;;;;;;;;;;10.90;53.30;;;;;;6187723;23;19911;-85
2021/12/10 01:55:45;;;;;;;;;;;10.90;53.20;;;;;;6187535;23;19924;-87
2021/12/10 01:58:12;;;;;;;;;;;10.90;53.40;;;;;;6187958;23;20472;-86
2021/12/10 02:00:39;;;;;;;;;;;10.90;53.10;;;;;;6188159;23;19922;-86
2021/12/10 02:03:05;;;;;;;;;;;10.90;53.20;;;;;;6190382;23;19921;-86
2021/12/10 02:05:31;;;;;;;;;;;10.80;53.30;;;;;;6216612;23;20240;-86
2021/12/10 02:07:58;;;;;;;;;;;10.90;53.40;;;;;;6189804;23;19908;-86
2021/12/10 02:10:24;;;;;;;;;;;10.90;53.30;;;;;;6189485;23;19912;-86
2021/12/10 02:12:49;;;;;;;;;;;10.90;53.20;;;;;;6216134;23;19934;-86
2021/12/10 02:15:15;;;;;;;;;;;10.90;52.90;;;;;;6217337;23;20343;-86
2021/12/10 02:17:42;;;;;;;;;;;10.80;52.90;;;;;;6217213;23;19928;-86
2021/12/10 02:20:19;;;;;;;;;;;10.80;53.00;;;;;;6189085;23;20376;-86
2021/12/10 02:22:45;;;;;;;;;;;10.80;53.00;;;;;;6189786;23;19904;-86
2021/12/10 02:25:11;;;;;;;;;;;10.80;53.00;;;;;;6189592;23;19907;-86
2021/12/10 02:27:37;;;;;;;;;;;10.80;53.00;;;;;;6189817;23;19956;-86
2021/12/10 02:30:05;;;;;;;;;;;10.80;52.90;;;;;;6189243;23;20585;-86
2021/12/10 02:32:31;;;;;;;;;;;10.70;52.90;;;;;;6188718;23;19995;-86
2021/12/10 02:34:56;;;;;;;;;;;10.70;53.10;;;;;;6189184;23;19950;-86
2021/12/10 02:37:22;;;;;;;;;;;10.70;53.10;;;;;;6215783;23;19919;-86
2021/12/10 02:39:47;;;;;;;;;;;10.70;53.10;;;;;;6189394;23;19944;-86
2021/12/10 02:42:13;;;;;;;;;;;10.70;53.00;;;;;;6189324;23;20190;-86
2021/12/10 02:44:38;;;;;;;;;;;10.70;53.20;;;;;;6216166;23;19911;-86
2021/12/10 02:47:04;;;;;;;;;;;10.70;53.20;;;;;;6216887;23;20481;-86
2021/12/10 02:49:30;;;;;;;;;;;10.70;53.50;;;;;;6215817;23;19912;-86
2021/12/10 02:51:56;;;;;;;;;;;10.70;53.30;;;;;;6189069;23;19912;-85
2021/12/10 02:54:32;;;;;;;;;;;10.70;53.40;;;;;;6216160;23;19915;-86
2021/12/10 02:56:59;;;;;;;;;;;10.70;53.30;;;;;;6189692;23;19997;-84
2021/12/10 02:59:24;;;;;;;;;;;10.70;53.30;;;;;;6187882;23;19908;-86
2021/12/10 03:01:51;;;;;;;;;;;10.70;53.10;;;;;;6189215;23;19962;-87
2021/12/10 03:04:17;;;;;;;;;;;10.60;53.00;;;;;;6216065;23;19911;-86
2021/12/10 03:06:45;;;;;;;;;;;10.50;52.90;;;;;;6189054;23;19912;-86
2021/12/10 03:09:12;;;;;;;;;;;10.50;52.90;;;;;;6188778;23;20248;-86
2021/12/10 03:11:38;;;;;;;;;;;10.50;52.70;;;;;;6188640;23;19930;-86
2021/12/10 03:14:09;;;;;;;;;;;10.50;52.80;;;;;;6215993;23;19911;-86
2021/12/10 03:16:35;;;;;;;;;;;10.50;53.00;;;;;;6216008;23;20275;-86
2021/12/10 03:19:00;;;;;;;;;;;10.40;52.90;;;;;;6188879;23;19966;-86
2021/12/10 03:21:26;;;;;;;;;;;10.40;53.00;;;;;;6188965;23;19908;-85
2021/12/10 03:23:51;;;;;;;;;;;10.40;53.10;;;;;;6189174;23;19915;-86
2021/12/10 03:26:19;;;;;;;;;;;10.30;53.10;;;;;;6189047;23;19908;-86
2021/12/10 03:28:45;;;;;;;;;;;10.30;53.10;;;;;;6189669;23;19912;-86
2021/12/10 03:31:10;;;;;;;;;;;10.30;53.20;;;;;;6216029;23;20366;-86
2021/12/10 03:33:37;;;;;;;;;;;10.20;53.20;;;;;;6215750;23;19904;-85
2021/12/10 03:36:02;;;;;;;;;;;10.20;53.40;;;;;;6188967;23;19916;-85
2021/12/10 03:38:28;;;;;;;;;;;10.20;53.40;;;;;;6164316;23;20228;-86
2021/12/10 03:40:54;;;;;;;;;;;10.10;53.30;;;;;;6190117;23;19919;-86
2021/12/10 03:43:20;;;;;;;;;;;10.10;53.50;;;;;;6214502;23;19946;-86
2021/12/10 03:45:50;;;;;;;;;;;10.10;53.60;;;;;;6189404;23;20313;-85
2021/12/10 03:48:18;;;;;;;;;;;10.10;53.50;;;;;;6190010;23;19931;-86
2021/12/10 03:50:45;;;;;;;;;;;10.10;53.60;;;;;;6189369;23;19912;-86
2021/12/10 03:53:10;;;;;;;;;;;10.00;53.70;;;;;;6190147;23;19907;-86
2021/12/10 03:55:36;;;;;;;;;;;10.00;53.70;;;;;;6215828;23;20403;-86
2021/12/10 03:58:02;;;;;;;;;;;10.00;53.60;;;;;;6216441;23;20214;-86
2021/12/10 04:00:30;;;;;;;;;;;9.90;53.70;;;;;;6189183;23;19919;-86
2021/12/10 04:02:56;;;;;;;;;;;9.80;53.70;;;;;;6216440;23;19908;-86
2021/12/10 04:05:23;;;;;;;;;;;9.70;53.60;;;;;;6189651;23;19912;-86
2021/12/10 04:07:48;;;;;;;;;;;9.70;53.70;;;;;;6189008;23;19930;-86
2021/12/10 04:10:14;;;;;;;;;;;9.70;53.90;;;;;;6189088;23;19939;-86
2021/12/10 04:12:40;;;;;;;;;;;9.60;53.90;;;;;;6188699;23;19908;-86
2021/12/10 04:15:06;;;;;;;;;;;9.50;54.00;;;;;;6188719;23;19912;-86
2021/12/10 04:17:32;;;;;;;;;;;9.50;54.00;;;;;;6188812;23;19911;-86
2021/12/10 04:19:57;;;;;;;;;;;9.40;54.10;;;;;;6214682;23;19939;-86
2021/12/10 04:22:23;;;;;;;;;;;9.30;54.10;;;;;;6189524;23;19936;-86
2021/12/10 04:24:50;;;;;;;;;;;9.30;54.10;;;;;;6188803;23;19907;-86
2021/12/10 04:27:17;;;;;;;;;;;9.20;54.20;;;;;;6215780;23;19915;-85
2021/12/10 04:29:42;;;;;;;;;;;9.20;54.30;;;;;;6213703;23;20042;-86
2021/12/10 04:32:09;;;;;;;;;;;9.10;54.30;;;;;;6188919;23;20596;-86
2021/12/10 04:34:34;;;;;;;;;;;9.00;54.30;;;;;;6188927;23;19986;-86
2021/12/10 04:37:01;;;;;;;;;;;9.00;54.40;;;;;;6216502;23;19912;-86
2021/12/10 04:39:29;;;;;;;;;;;8.80;54.50;;;;;;6216121;23;19904;-86
2021/12/10 04:41:54;;;;;;;;;;;8.70;54.50;;;;;;6215965;23;19912;-86
2021/12/10 04:44:20;;;;;;;;;;;8.70;54.60;;;;;;6215615;23;19919;-85
2021/12/10 04:46:46;;;;;;;;;;;8.60;54.70;;;;;;6189347;23;19965;-86
2021/12/10 04:49:13;;;;;;;;;;;8.60;54.80;;;;;;6188901;23;19914;-86
2021/12/10 04:51:42;;;;;;;;;;;8.50;55.00;;;;;;6214532;23;20015;-86
2021/12/10 04:54:08;;;;;;;;;;;8.50;55.10;;;;;;6215754;23;19908;-85
2021/12/10 04:56:34;;;;;;;;;;;8.50;55.40;;;;;;6214251;23;20296;-85
2021/12/10 04:59:00;;;;;;;;;;;8.60;55.60;;;;;;6213864;23;19923;-85
2021/12/10 05:01:26;;;;;;;;;;;8.70;55.50;;;;;;6213618;23;19923;-86
2021/12/10 05:03:52;;;;;;;;;;;8.70;55.40;;;;;;6215518;23;19927;-86
2021/12/10 05:06:21;;;;;;;;;;;8.80;55.50;;;;;;6215120;23;19912;-85
2021/12/10 05:08:46;;;;;;;;;;;8.80;55.50;;;;;;6188326;23;19914;-85
2021/12/10 05:11:12;;;;;;;;;;;8.90;55.30;;;;;;6188519;23;20329;-86
2021/12/10 05:13:39;;;;;;;;;;;9.00;55.20;;;;;;6188344;23;19911;-85
2021/12/10 05:16:05;;;;;;;;;;;9.00;55.00;;;;;;6216117;23;19920;-86
2021/12/10 05:18:33;;;;;;;;;;;9.00;55.10;;;;;;6215343;23;19914;-85
2021/12/10 05:20:59;;;;;;;;;;;8.90;54.90;;;;;;6214160;23;19919;-85
2021/12/10 05:23:24;;;;;;;;;;;8.90;54.90;;;;;;6188755;23;19904;-86
2021/12/10 05:25:50;;;;;;;;;;;8.80;54.90;;;;;;6215343;23;19920;-85
2021/12/10 05:28:16;;;;;;;;;;;8.80;54.70;;;;;;6213769;23;20339;-86
2021/12/10 05:30:41;;;;;;;;;;;8.70;54.70;;;;;;6215650;23;19995;-86
2021/12/10 05:33:14;;;;;;;;;;;8.60;54.70;;;;;;6188982;23;19939;-86
2021/12/10 05:35:40;;;;;;;;;;;8.50;54.80;;;;;;6190405;23;19916;-85
2021/12/10 05:38:05;;;;;;;;;;;8.40;55.00;;;;;;6217883;23;20312;-86
2021/12/10 05:40:31;;;;;;;;;;;8.30;55.10;;;;;;6218760;23;19918;-86
2021/12/10 05:42:56;;;;;;;;;;;8.20;55.10;;;;;;6190836;23;19983;-85
2021/12/10 05:45:22;;;;;;;;;;;8.20;55.20;;;;;;6190258;23;19911;-88
2021/12/10 05:47:48;;;;;;;;;;;8.10;55.20;;;;;;6218067;23;19908;-87
2021/12/10 05:50:15;;;;;;;;;;;8.00;55.20;;;;;;6190766;23;19907;-86
2021/12/10 05:52:40;;;;;;;;;;;8.00;55.20;;;;;;6190326;23;19910;-85
2021/12/10 05:55:06;;;;;;;;;;;7.90;55.30;;;;;;6217010;23;19907;-86
2021/12/10 05:57:31;;;;;;;;;;;7.80;55.40;;;;;;6216373;23;19911;-86
2021/12/10 05:59:57;;;;;;;;;;;7.80;55.60;;;;;;6190225;23;19908;-86
2021/12/10 06:02:23;;;;;;;;;;;7.70;55.70;;;;;;6217676;23;20001;-86
2021/12/10 06:04:48;;;;;;;;;;;7.70;55.70;;;;;;6190956;23;19904;-86
2021/12/10 06:07:14;;;;;;;;;;;7.60;55.90;;;;;;6220427;23;20233;-86
2021/12/10 06:09:39;;;;;;;;;;;7.60;56.00;;;;;;6224532;23;20328;-85
2021/12/10 06:12:05;;;;;;;;;;;7.50;56.00;;;;;;6194677;23;19922;-86
2021/12/10 06:14:30;;;;;;;;;;;7.50;56.00;;;;;;6191288;23;19947;-86
2021/12/10 06:16:56;;;;;;;;;;;7.50;56.00;;;;;;6217365;23;19912;-87
2021/12/10 06:19:24;;;;;;;;;;;7.40;56.10;;;;;;6190757;23;19962;-87
2021/12/10 06:21:51;;;;;;;;;;;7.30;56.10;;;;;;6217619;23;19912;-86
2021/12/10 06:24:17;;;;;;;;;;;7.30;56.10;;;;;;6191014;23;19956;-86
2021/12/10 06:26:43;;;;;;;;;;;7.20;56.10;;;;;;6189072;23;20384;-86
2021/12/10 06:29:08;;;;;;;;;;;7.20;56.40;;;;;;6216587;23;19912;-86
2021/12/10 06:31:34;;;;;;;;;;;7.20;56.70;;;;;;6217466;23;20280;-86
2021/12/10 06:34:00;;;;;;;;;;;7.10;57.00;;;;;;6217494;23;19914;-86
2021/12/10 06:36:27;;;;;;;;;;;7.10;57.20;;;;;;6190701;23;19920;-86
2021/12/10 06:38:53;;;;;;;;;;;7.20;57.30;;;;;;6191092;23;19904;-85
2021/12/10 06:41:19;;;;;;;;;;;7.20;57.30;;;;;;6190606;23;19916;-86
2021/12/10 06:43:46;;;;;;;;;;;7.10;57.00;;;;;;6189653;23;20239;-87
2021/12/10 06:46:13;;;;;;;;;;;7.10;56.90;;;;;;6189678;23;19978;-86
2021/12/10 06:48:39;;;;;;;;;;;7.00;56.90;;;;;;6189490;23;20240;-86
2021/12/10 06:51:09;;;;;;;;;;;7.00;56.80;;;;;;6189739;23;19943;-86
2021/12/10 06:53:35;;;;;;;;;;;7.00;56.80;;;;;;6216660;23;19904;-86
2021/12/10 06:56:01;;;;;;;;;;;7.00;57.00;;;;;;6190547;23;20299;-87
2021/12/10 06:58:29;;;;;;;;;;;7.00;57.20;;;;;;6189796;23;19908;-87
2021/12/10 07:00:56;;;;;;;;;;;6.90;57.40;;;;;;6164866;23;19950;-86
2021/12/10 07:03:23;;;;;;;;;;;6.90;57.60;;;;;;6217031;23;20341;-87
2021/12/10 07:05:48;;;;;;;;;;;7.00;57.70;;;;;;6215953;23;19995;-86
2021/12/10 07:08:15;;;;;;;;;;;6.90;57.70;;;;;;6190086;23;19943;-87
2021/12/10 07:10:41;;;;;;;;;;;6.90;57.60;;;;;;6215817;23;19918;-87
2021/12/10 07:13:06;;;;;;;;;;;6.90;57.50;;;;;;6189879;23;19990;-87
2021/12/10 07:15:33;;;;;;;;;;;6.90;57.50;;;;;;6216174;23;19994;-86
2021/12/10 07:17:59;;;;;;;;;;;6.90;57.40;;;;;;6189984;23;19931;-87
2021/12/10 07:20:25;;;;;;;;;;;6.90;57.30;;;;;;6189686;23;20313;-87
2021/12/10 07:22:51;;;;;;;;;;;6.90;57.10;;;;;;6189655;23;20392;-87
2021/12/10 07:25:17;;;;;;;;;;;6.90;57.10;;;;;;6189190;23;19951;-87
2021/12/10 07:27:43;;;;;;;;;;;6.80;57.20;;;;;;6189225;23;19991;-87
2021/12/10 07:30:09;;;;;;;;;;;6.90;57.30;;;;;;6216794;23;20337;-87
2021/12/10 07:32:34;;;;;;;;;;;6.80;57.30;;;;;;6189666;23;19979;-86
2021/12/10 07:35:00;;;;;;;;;;;6.80;57.50;;;;;;6215716;23;19915;-87
2021/12/10 07:37:26;;;;;;;;;;;6.90;57.50;;;;;;6216612;23;19915;-87
2021/12/10 07:39:51;;;;;;;;;;;6.90;57.60;;;;;;6189450;23;20391;-86
2021/12/10 07:42:17;;;;;;;;;;;6.90;57.70;;;;;;6189836;23;19916;-87
2021/12/10 07:44:42;;;;;;;;;;;6.90;57.90;;;;;;6217109;23;19940;-87
2021/12/10 07:47:12;;;;;;;;;;;6.90;58.00;;;;;;6189569;23;20236;-87
2021/12/10 07:49:38;;;;;;;;;;;7.00;58.00;;;;;;6189653;23;19991;-87
2021/12/10 07:52:06;;;;;;;;;;;7.00;58.10;;;;;;6217191;23;19912;-87
2021/12/10 07:54:32;;;;;;;;;;;7.10;58.10;;;;;;6216041;23;19977;-87
2021/12/10 07:56:58;;;;;;;;;;;7.10;58.20;;;;;;6190048;23;19943;-87
2021/12/10 07:59:23;;;;;;;;;;;7.20;58.20;;;;;;6190303;23;19995;-87
2021/12/10 08:01:49;;;;;;;;;;;7.30;58.30;;;;;;6216495;23;19908;-87
2021/12/10 08:04:14;;;;;;;;;;;7.30;58.20;;;;;;6216259;23;19943;-87
2021/12/10 08:06:40;;;;;;;;;;;7.30;58.30;;;;;;6216286;23;20221;-86
2021/12/10 08:09:07;;;;;;;;;;;7.50;59.20;;;;;;6215786;23;19908;-87
2021/12/10 08:11:33;;;;;;;;;;;7.80;60.30;;;;;;6188690;23;19953;-88
2021/12/10 08:13:58;;;;;;;;;;;8.20;60.10;;;;;;6189392;23;19936;-87
2021/12/10 08:16:25;;;;;;;;;;;8.40;59.70;;;;;;6216338;23;19916;-87
2021/12/10 08:18:51;;;;;;;;;;;8.70;59.40;;;;;;6188438;23;19991;-87
2021/12/10 08:21:17;;;;;;;;;;;9.00;59.20;;;;;;6214903;23;20262;-88
2021/12/10 08:23:45;;;;;;;;;;;9.20;58.70;;;;;;6211804;23;19939;-88
2021/12/10 08:26:12;;;;;;;;;;;9.50;57.80;;;;;;6214019;23;20532;-88
2021/12/10 08:28:38;;;;;;;;;;;9.70;57.10;;;;;;6187364;23;19912;-88
2021/12/10 08:31:04;;;;;;;;;;;9.80;56.30;;;;;;6214831;23;19974;-88
2021/12/10 08:33:31;;;;;;;;;;;9.90;56.20;;;;;;6213271;23;19916;-88
2021/12/10 08:35:58;;;;;;;;;;;10.00;55.90;;;;;;6187887;23;19959;-88
2021/12/10 08:38:25;;;;;;;;;;;10.10;55.40;;;;;;6187525;23;19997;-88
2021/12/10 08:40:57;;;;;;;;;;;10.20;55.00;;;;;;6187489;23;20317;-88
2021/12/10 08:43:22;;;;;;;;;;;10.30;54.70;;;;;;6186917;23;19910;-88
2021/12/10 08:45:48;;;;;;;;;;;10.30;54.60;;;;;;6187061;23;19944;-88
2021/12/10 08:48:13;;;;;;;;;;;10.40;54.20;;;;;;6187324;23;20540;-87
2021/12/10 08:50:40;;;;;;;;;;;10.50;54.50;;;;;;6212744;23;19916;-88
2021/12/10 08:53:07;;;;;;;;;;;10.70;54.60;;;;;;6212280;23;19904;-88
2021/12/10 08:55:34;;;;;;;;;;;10.80;53.80;;;;;;6185244;23;20000;-86
2021/12/10 08:57:59;;;;;;;;;;;11.00;53.80;;;;;;6185630;23;20389;-88
2021/12/10 09:00:25;;;;;;;;;;;11.10;53.60;;;;;;6212728;23;19940;-88
2021/12/10 09:02:52;;;;;;;;;;;11.30;53.30;;;;;;6212505;23;19914;-85
2021/12/10 09:05:18;;;;;;;;;;;11.40;53.50;;;;;;6211611;23;20311;-88
2021/12/10 09:07:44;;;;;;;;;;;11.70;53.60;;;;;;6185126;23;19911;-88
2021/12/10 09:10:11;;;;;;;;;;;12.00;53.80;;;;;;6211427;23;20336;-88
2021/12/10 09:12:37;;;;;;;;;;;12.30;53.10;;;;;;6185863;23;19908;-85
2021/12/10 09:15:05;;;;;;;;;;;12.60;52.50;;;;;;6186060;23;19912;-89
2021/12/10 09:17:38;;;;;;;;;;;12.80;51.80;;;;;;6189289;23;20287;-87
2021/12/10 09:20:05;;;;;;;;;;;12.90;51.00;;;;;;6214480;23;20212;-87
2021/12/10 09:22:30;;;;;;;;;;;13.00;50.40;;;;;;6215658;23;19931;-86
2021/12/10 09:24:58;;;;;;;;;;;12.90;49.90;;;;;;6214300;23;19908;-86
2021/12/10 09:27:24;;;;;;;;;;;12.90;49.50;;;;;;6189414;23;19969;-87
2021/12/10 09:29:52;;;;;;;;;;;12.90;49.00;;;;;;6188434;23;19994;-87
2021/12/10 09:32:20;;;;;;;;;;;13.00;49.10;;;;;;6189700;23;19934;-87
2021/12/10 09:34:46;;;;;;;;;;;13.00;48.80;;;;;;6216014;23;19912;-86
2021/12/10 09:37:13;;;;;;;;;;;13.00;48.20;;;;;;6189584;23;19966;-87
2021/12/10 09:39:39;;;;;;;;;;;13.00;48.60;;;;;;6215546;23;19915;-87
2021/12/10 09:42:05;;;;;;;;;;;13.10;47.90;;;;;;6189468;23;19979;-87
2021/12/10 09:44:30;;;;;;;;;;;13.10;47.90;;;;;;6189330;23;19904;-87
2021/12/10 09:46:57;;;;;;;;;;;13.30;48.50;;;;;;6188213;23;20300;-88
2021/12/10 09:49:24;;;;;;;;;;;13.30;47.70;;;;;;6189497;23;19983;-86
2021/12/10 09:51:52;;;;;;;;;;;13.40;47.40;;;;;;6189565;23;19908;-88
2021/12/10 09:54:19;;;;;;;;;;;13.50;47.10;;;;;;6188560;23;19943;-87
2021/12/10 09:56:57;;;;;;;;;;;13.60;47.20;;;;;;6190002;23;19982;-87
2021/12/10 09:59:23;;;;;;;;;;;13.80;47.20;;;;;;6189409;23;19911;-87
2021/12/10 10:01:52;;;;;;;;;;;13.80;47.20;;;;;;6215962;23;20343;-88
2021/12/10 10:04:19;;;;;;;;;;;14.00;46.40;;;;;;6189422;23;19991;-87
2021/12/10 10:06:50;;;;;;;;;;;14.00;45.60;;;;;;6189920;23;19908;-87
2021/12/10 10:09:17;;;;;;;;;;;14.10;45.70;;;;;;6190037;23;19908;-87
2021/12/10 10:11:46;;;;;;;;;;;14.20;44.60;;;;;;6216334;23;19987;-87
2021/12/10 10:14:12;;;;;;;;;;;14.20;44.60;;;;;;6215717;23;19935;-87
2021/12/10 10:16:43;;;;;;;;;;;14.40;44.20;;;;;;6216394;23;19919;-87
2021/12/10 10:19:09;;;;;;;;;;;14.50;44.20;;;;;;6189510;23;19912;-87
2021/12/10 10:21:39;;;;;;;;;;;14.50;42.70;;;;;;6216870;23;19990;-88
2021/12/10 10:24:05;;;;;;;;;;;14.70;43.00;;;;;;6191465;23;20178;-87
2021/12/10 10:26:33;;;;;;;;;;;14.70;42.60;;;;;;6191265;23;19935;-88
2021/12/10 10:29:10;;;;;;;;;;;14.70;41.30;;;;;;6190776;23;19915;-86
2021/12/10 10:31:36;;;;;;;;;;;14.60;40.40;;;;;;6190962;23;19912;-88
2021/12/10 10:34:01;;;;;;;;;;;14.60;40.30;;;;;;6217461;23;19946;-88
2021/12/10 10:36:30;;;;;;;;;;;14.60;40.30;;;;;;6190070;23;19916;-88
2021/12/10 10:38:58;;;;;;;;;;;14.50;39.80;;;;;;6190457;23;20046;-87
2021/12/10 10:41:25;;;;;;;;;;;14.50;39.50;;;;;;6218373;23;20332;-88
2021/12/10 10:43:51;;;;;;;;;;;14.50;39.70;;;;;;6217501;23;19904;-88
2021/12/10 10:46:16;;;;;;;;;;;14.40;39.40;;;;;;6217486;23;19912;-87
2021/12/10 10:48:48;;;;;;;;;;;14.20;38.90;;;;;;6191114;23;19911;-87
2021/12/10 10:51:17;;;;;;;;;;;13.90;39.10;;;;;;6190603;23;19923;-88
2021/12/10 10:53:47;;;;;;;;;;;13.90;39.90;;;;;;6217602;23;19986;-88
2021/12/10 10:56:15;;;;;;;;;;;14.00;39.50;;;;;;6190474;23;19917;-88
2021/12/10 10:58:46;;;;;;;;;;;13.90;39.10;;;;;;6217600;23;19908;-87
2021/12/10 11:01:24;;;;;;;;;;;13.90;39.00;;;;;;6190571;23;19916;-88
2021/12/10 11:03:58;;;;;;;;;;;14.00;38.90;;;;;;6191303;23;19904;-86
2021/12/10 11:06:26;;;;;;;;;;;13.80;38.40;;;;;;6218055;23;20316;-87
2021/12/10 11:08:53;;;;;;;;;;;13.80;38.80;;;;;;6190123;23;19904;-89
2021/12/10 11:11:21;;;;;;;;;;;13.80;38.60;;;;;;6217820;23;19911;-87
2021/12/10 11:13:49;;;;;;;;;;;13.90;38.80;;;;;;6190467;23;19904;-89
2021/12/10 11:16:18;;;;;;;;;;;13.90;38.60;;;;;;6216889;23;19916;-88
2021/12/10 11:19:02;;;;;;;;;;;14.00;38.40;;;;;;6217252;23;20248;-88
2021/12/10 11:21:43;;;;;;;;;;;14.20;38.20;;;;;;6190710;23;20218;-88
2021/12/10 11:24:19;;;;;;;;;;;14.20;38.00;;;;;;6190847;23;19918;-87
2021/12/10 11:26:45;;;;;;;;;;;14.30;37.70;;;;;;6191173;23;19911;-89
2021/12/10 11:29:40;;;;;;;;;;;14.20;37.40;;;;;;6190579;23;19916;-88
2021/12/10 11:32:10;;;;;;;;;;;14.00;37.40;;;;;;6164616;23;20178;-87
2021/12/10 11:34:39;;;;;;;;;;;13.50;37.60;;;;;;6190423;23;19975;-88
2021/12/10 11:37:04;;;;;;;;;;;13.20;38.10;;;;;;6190373;23;20383;-88
2021/12/10 11:39:50;;;;;;;;;;;13.20;38.60;;;;;;6190007;23;19934;-87
2021/12/10 11:42:33;;;;;;;;;;;13.00;38.70;;;;;;6215051;23;19911;-88
2021/12/10 11:45:17;;;;;;;;;;;12.80;39.00;;;;;;6215503;23;19904;-88
2021/12/10 11:47:50;;;;;;;;;;;12.70;39.30;;;;;;6190487;23;19916;-88
2021/12/10 11:50:18;;;;;;;;;;;12.60;39.50;;;;;;6215299;23;19904;-88
2021/12/10 11:52:43;;;;;;;;;;;12.50;39.80;;;;;;6215687;23;19916;-87
2021/12/10 11:55:10;;;;;;;;;;;12.50;40.10;;;;;;6191061;23;20319;-89
2021/12/10 11:57:44;;;;;;;;;;;12.40;40.20;;;;;;6189909;23;19974;-88
2021/12/10 12:00:11;;;;;;;;;;;12.40;40.40;;;;;;6215664;23;20283;-88
2021/12/10 12:02:46;;;;;;;;;;;12.40;40.50;;;;;;6214435;23;19919;-87
2021/12/10 12:05:14;;;;;;;;;;;12.50;40.90;;;;;;6214695;23;19904;-87
2021/12/10 12:07:40;;;;;;;;;;;12.60;41.00;;;;;;6214335;23;19931;-87
2021/12/10 12:10:14;;;;;;;;;;;12.70;41.00;;;;;;6214937;23;20339;-86
2021/12/10 12:12:43;;;;;;;;;;;12.80;40.60;;;;;;6189232;23;19923;-87
2021/12/10 12:15:12;;;;;;;;;;;12.90;40.70;;;;;;6189064;23;19908;-87
2021/12/10 12:17:38;;;;;;;;;;;13.00;40.50;;;;;;6216098;23;20416;-87
2021/12/10 12:20:09;;;;;;;;;;;13.10;40.20;;;;;;6215852;23;19908;-87
2021/12/10 12:25:30;;;;;;;;;;;12.80;39.40;;;;;;6216281;23;19991;-87
2021/12/10 12:27:59;;;;;;;;;;;12.70;39.70;;;;;;6215539;23;19919;-87
2021/12/10 12:30:25;;;;;;;;;;;12.70;39.60;;;;;;6188550;23;20352;-87
2021/12/10 12:32:53;;;;;;;;;;;12.70;39.80;;;;;;6215551;23;19965;-87
2021/12/10 12:35:24;;;;;;;;;;;12.80;40.10;;;;;;6189440;23;19912;-87
2021/12/10 12:37:50;;;;;;;;;;;12.80;40.00;;;;;;6188627;23;19999;-87
2021/12/10 12:40:16;;;;;;;;;;;12.80;39.50;;;;;;6215624;23;20327;-88
2021/12/10 12:42:46;;;;;;;;;;;12.80;39.60;;;;;;6188616;23;19966;-87
2021/12/10 12:45:16;;;;;;;;;;;12.70;39.90;;;;;;6215622;23;19907;-87
2021/12/10 12:47:46;;;;;;;;;;;12.70;40.10;;;;;;6216189;23;20010;-87
2021/12/10 12:50:12;;;;;;;;;;;12.70;40.00;;;;;;6189425;23;19904;-87
2021/12/10 12:52:40;;;;;;;;;;;12.50;40.00;;;;;;6188996;23;19919;-87
2021/12/10 12:55:15;;;;;;;;;;;12.50;39.80;;;;;;6217158;23;19919;-85
2021/12/10 12:57:43;;;;;;;;;;;12.30;39.80;;;;;;6216363;23;19908;-86
2021/12/10 13:00:12;;;;;;;;;;;12.20;39.80;;;;;;6190920;23;19919;-87
2021/12/10 13:02:38;;;;;;;;;;;12.10;40.00;;;;;;6217362;23;20287;-87
2021/12/10 13:05:06;;;;;;;;;;;12.00;40.20;;;;;;6190042;23;19946;-87
2021/12/10 13:07:32;;;;;;;;;;;11.90;40.20;;;;;;6189697;23;19931;-87
2021/12/10 13:10:02;;;;;;;;;;;11.80;40.40;;;;;;6189693;23;19912;-88
2021/12/10 13:15:02;;;;;;;;;;;11.60;40.70;;;;;;6216608;23;19991;-87
2021/12/10 13:17:32;;;;;;;;;;;11.50;40.70;;;;;;6215906;23;19911;-87
2021/12/10 13:19:59;;;;;;;;;;;11.50;40.90;;;;;;6189641;23;20329;-87
2021/12/10 13:22:26;;;;;;;;;;;11.40;41.00;;;;;;6189317;23;19978;-87
2021/12/10 13:24:54;;;;;;;;;;;11.30;41.20;;;;;;6188945;23;19974;-87
2021/12/10 13:27:23;;;;;;;;;;;11.30;41.30;;;;;;6189881;23;19931;-86
2021/12/10 13:29:49;;;;;;;;;;;11.20;41.30;;;;;;6217039;23;20217;-87
2021/12/10 13:32:15;;;;;;;;;;;11.20;41.50;;;;;;6189917;23;19978;-86
2021/12/10 13:34:40;;;;;;;;;;;11.20;41.70;;;;;;6189618;23;19915;-88
2021/12/10 13:37:08;;;;;;;;;;;11.10;41.90;;;;;;6189067;23;19915;-86
2021/12/10 13:39:34;;;;;;;;;;;11.10;42.00;;;;;;6215337;23;20002;-87
2021/12/10 13:42:00;;;;;;;;;;;11.00;42.00;;;;;;6214726;23;19904;-88
2021/12/10 13:46:57;;;;;;;;;;;10.90;42.40;;;;;;6215983;23;19935;-87
2021/12/10 13:49:23;;;;;;;;;;;10.80;42.50;;;;;;6189800;23;20312;-87
2021/12/10 13:51:51;;;;;;;;;;;10.80;42.70;;;;;;6189638;23;19908;-87
2021/12/10 13:54:21;;;;;;;;;;;10.70;42.80;;;;;;6189478;23;19907;-87
2021/12/10 13:56:52;;;;;;;;;;;10.70;43.00;;;;;;6190363;23;19914;-87
2021/12/10 13:59:22;;;;;;;;;;;10.70;43.10;;;;;;6218175;23;19911;-87
2021/12/10 14:01:49;;;;;;;;;;;10.60;43.20;;;;;;6217562;23;19958;-87
2021/12/10 14:04:16;;;;;;;;;;;10.50;43.40;;;;;;6217978;23;19911;-87
2021/12/10 14:06:42;;;;;;;;;;;10.50;43.50;;;;;;6191348;23;19904;-87
2021/12/10 14:09:15;;;;;;;;;;;10.40;43.60;;;;;;6191289;23;19911;-87
2021/12/10 14:11:56;;;;;;;;;;;10.40;43.70;;;;;;6191255;23;19904;-87
2021/12/10 14:14:30;;;;;;;;;;;10.30;43.90;;;;;;6217830;23;19916;-86
2021/12/10 14:16:57;;;;;;;;;;;10.30;44.10;;;;;;6191872;23;19978;-87
2021/12/10 14:19:31;;;;;;;;;;;10.20;44.30;;;;;;6191311;23;20321;-87
2021/12/10 14:21:57;;;;;;;;;;;10.20;44.50;;;;;;6191641;23;19904;-86
2021/12/10 14:24:42;;;;;;;;;;;10.10;44.70;;;;;;6191466;23;19961;-88
2021/12/10 14:27:23;;;;;;;;;;;10.00;45.00;;;;;;6190891;23;19912;-87
2021/12/10 14:30:07;;;;;;;;;;;10.00;45.20;;;;;;6191344;23;20263;-87
2021/12/10 14:32:32;;;;;;;;;;;9.90;45.40;;;;;;6190771;23;20237;-87
2021/12/10 14:35:07;;;;;;;;;;;9.80;45.50;;;;;;6217714;23;19919;-88
2021/12/10 14:37:56;;;;;;;;;;;9.80;45.50;;;;;;6191315;23;19916;-87
2021/12/10 14:40:24;;;;;;;;;;;9.70;45.70;;;;;;6175834;23;19989;-88
2021/12/10 14:43:08;;;;;;;;;;;9.70;45.90;;;;;;6190924;23;19987;-87